createdAt,value
2023-02-17T00:00:19.918Z,53.56
2023-02-17T00:01:31.942Z,53.57
2023-02-17T00:02:35.497Z,53.44
2023-02-17T00:03:38.820Z,53.49
2023-02-17T00:04:41.162Z,53.44
2023-02-17T00:05:43.358Z,53.41
2023-02-17T00:06:45.500Z,53.38
2023-02-17T00:07:48.701Z,53.32
2023-02-17T00:08:52.139Z,53.35
2023-02-17T00:09:54.268Z,53.30
2023-02-17T00:11:00.547Z,53.12
2023-02-17T00:12:03.569Z,53.06
2023-02-17T00:13:05.923Z,53.23
2023-02-17T00:14:13.264Z,52.93
2023-02-17T00:15:15.778Z,53.18
2023-02-17T00:16:20.601Z,53.11
2023-02-17T00:17:22.883Z,53.10
2023-02-17T00:18:25.529Z,52.94
2023-02-17T00:19:27.778Z,52.95
2023-02-17T00:20:29.957Z,53.11
2023-02-17T00:21:32.696Z,53.13
2023-02-17T00:22:34.919Z,53.10
2023-02-17T00:23:37.110Z,53.07
2023-02-17T00:24:40.800Z,53.06
2023-02-17T00:25:43.164Z,53.20
2023-02-17T00:26:48.165Z,53.06
2023-02-17T00:27:50.455Z,53.02
2023-02-17T00:28:52.903Z,53.02
2023-02-17T00:29:55.222Z,52.98
2023-02-17T00:30:57.627Z,52.97
2023-02-17T00:31:59.987Z,52.95
2023-02-17T00:33:04.521Z,53.17
2023-02-17T00:34:08.900Z,53.12
2023-02-17T00:35:12.198Z,53.25
2023-02-17T00:36:19.644Z,53.34
2023-02-17T00:37:22.011Z,53.17
2023-02-17T00:38:24.203Z,53.11
2023-02-17T00:39:26.399Z,53.29
2023-02-17T00:40:28.614Z,53.28
2023-02-17T00:41:30.758Z,53.41
2023-02-17T00:42:32.964Z,53.16
2023-02-17T00:43:35.548Z,53.11
2023-02-17T00:44:38.052Z,53.33
2023-02-17T00:45:40.273Z,53.23
2023-02-17T00:46:42.520Z,53.24
2023-02-17T00:47:44.699Z,53.24
2023-02-17T00:48:48.058Z,53.21
2023-02-17T00:49:50.279Z,53.25
2023-02-17T00:50:52.573Z,53.25
2023-02-17T00:51:54.855Z,53.14
2023-02-17T00:52:57.046Z,53.17
2023-02-17T00:53:59.227Z,53.17
2023-02-17T00:55:01.427Z,53.20
2023-02-17T00:56:05.103Z,52.89
2023-02-17T00:57:07.566Z,52.92
2023-02-17T00:58:09.786Z,52.86
2023-02-17T00:59:13.049Z,52.77
2023-02-17T01:00:15.801Z,52.73
2023-02-17T01:01:18.083Z,52.61
2023-02-17T01:02:20.275Z,52.77
2023-02-17T01:03:23.517Z,52.50
2023-02-17T01:04:26.919Z,52.30
2023-02-17T01:05:29.077Z,52.47
2023-02-17T01:06:35.673Z,52.41
2023-02-17T01:07:37.963Z,52.47
2023-02-17T01:08:41.316Z,52.38
2023-02-17T01:09:43.602Z,52.39
2023-02-17T01:10:47.290Z,52.45
2023-02-17T01:11:49.466Z,52.40
2023-02-17T01:12:51.622Z,52.28
2023-02-17T01:13:56.857Z,52.31
2023-02-17T01:14:59.168Z,52.29
2023-02-17T01:16:01.464Z,52.31
2023-02-17T01:17:03.809Z,52.25
2023-02-17T01:18:06.038Z,52.24
2023-02-17T01:19:12.292Z,52.26
2023-02-17T01:20:14.634Z,52.24
2023-02-17T01:21:24.914Z,52.18
2023-02-17T01:22:27.232Z,52.42
2023-02-17T01:23:30.629Z,52.24
2023-02-17T01:24:32.989Z,52.14
2023-02-17T01:25:40.361Z,52.11
2023-02-17T01:26:43.044Z,52.13
2023-02-17T01:27:47.160Z,52.27
2023-02-17T01:28:51.059Z,52.25
2023-02-17T01:29:53.303Z,52.29
2023-02-17T01:30:55.629Z,51.98
2023-02-17T01:31:58.249Z,51.96
2023-02-17T01:33:02.678Z,52.09
2023-02-17T01:34:05.699Z,52.07
2023-02-17T01:35:10.964Z,52.14
2023-02-17T01:36:16.392Z,51.97
2023-02-17T01:37:18.542Z,52.06
2023-02-17T01:38:21.996Z,52.04
2023-02-17T01:39:25.875Z,52.17
2023-02-17T01:40:28.051Z,52.15
2023-02-17T01:41:32.705Z,52.11
2023-02-17T01:42:35.747Z,52.14
2023-02-17T01:43:38.104Z,52.30
2023-02-17T01:45:18.185Z,52.16
2023-02-17T01:46:20.477Z,52.13
2023-02-17T01:47:22.705Z,52.08
2023-02-17T01:48:35.690Z,52.15
2023-02-17T01:49:41.512Z,52.40
2023-02-17T01:50:52.430Z,52.33
2023-02-17T01:52:16.376Z,52.46
2023-02-17T01:53:24.965Z,52.64
2023-02-17T01:54:47.796Z,52.73
2023-02-17T01:55:50.235Z,52.37
2023-02-17T01:56:53.244Z,52.59
2023-02-17T01:58:00.328Z,52.74
2023-02-17T01:59:07.488Z,52.79
2023-02-17T02:00:12.768Z,52.84
2023-02-17T02:01:15.265Z,52.56
2023-02-17T02:02:18.205Z,52.82
2023-02-17T02:03:21.181Z,52.81
2023-02-17T02:04:25.961Z,52.84
2023-02-17T02:05:28.679Z,52.93
2023-02-17T02:06:32.325Z,52.88
2023-02-17T02:07:39.865Z,53.02
2023-02-17T02:09:20.225Z,53.04
2023-02-17T02:10:23.621Z,53.11
2023-02-17T02:11:27.010Z,52.95
2023-02-17T02:12:37.798Z,53.00
2023-02-17T02:13:40.122Z,53.18
2023-02-17T02:14:42.457Z,53.01
2023-02-17T02:15:57.280Z,53.27
2023-02-17T02:17:09.463Z,53.15
2023-02-17T02:18:33.499Z,53.26
2023-02-17T02:20:07.832Z,53.18
2023-02-17T02:21:34.587Z,53.24
2023-02-17T02:23:04.147Z,53.40
2023-02-17T02:24:35.528Z,53.38
2023-02-17T02:26:14.756Z,53.43
2023-02-17T02:27:43.111Z,53.39
2023-02-17T02:29:33.999Z,53.42
2023-02-17T02:30:55.704Z,53.55
2023-02-17T02:32:33.103Z,53.51
2023-02-17T02:33:56.086Z,53.56
2023-02-17T02:35:06.012Z,53.80
2023-02-17T02:36:08.556Z,53.79
2023-02-17T02:37:18.264Z,53.60
2023-02-17T02:38:26.833Z,53.59
2023-02-17T02:39:38.829Z,53.89
2023-02-17T02:40:48.770Z,53.71
2023-02-17T02:41:55.622Z,53.67
2023-02-17T02:43:01.026Z,53.72
2023-02-17T02:44:15.176Z,53.74
2023-02-17T02:45:19.192Z,53.85
2023-02-17T02:46:21.614Z,54.09
2023-02-17T02:47:52.717Z,54.09
2023-02-17T02:48:59.122Z,53.97
2023-02-17T02:50:02.253Z,53.97
2023-02-17T02:51:21.088Z,54.41
2023-02-17T02:52:48.606Z,54.21
2023-02-17T02:54:11.312Z,54.25
2023-02-17T02:55:38.088Z,54.37
2023-02-17T02:56:54.035Z,54.47
2023-02-17T02:58:07.785Z,54.65
2023-02-17T02:59:34.000Z,54.46
2023-02-17T03:00:41.061Z,54.56
2023-02-17T03:02:09.193Z,54.36
2023-02-17T03:03:17.377Z,54.61
2023-02-17T03:04:36.703Z,54.49
2023-02-17T03:05:57.621Z,54.44
2023-02-17T03:07:05.034Z,54.44
2023-02-17T03:08:16.340Z,54.49
2023-02-17T03:09:23.008Z,54.46
2023-02-17T03:10:25.621Z,54.45
2023-02-17T03:11:34.101Z,54.64
2023-02-17T03:12:39.710Z,54.68
2023-02-17T03:13:42.708Z,54.71
2023-02-17T03:14:51.188Z,54.91
2023-02-17T03:15:53.810Z,54.94
2023-02-17T03:16:56.051Z,55.00
2023-02-17T03:18:02.891Z,54.88
2023-02-17T03:19:05.316Z,54.84
2023-02-17T03:20:08.557Z,54.83
2023-02-17T03:21:16.000Z,55.01
2023-02-17T03:22:32.414Z,54.90
2023-02-17T03:23:34.655Z,54.83
2023-02-17T03:24:37.055Z,54.90
2023-02-17T03:25:42.095Z,54.76
2023-02-17T03:26:45.841Z,54.83
2023-02-17T03:27:48.693Z,54.75
2023-02-17T03:28:50.998Z,54.72
2023-02-17T03:29:53.876Z,54.87
2023-02-17T03:30:56.247Z,54.79
2023-02-17T03:31:58.678Z,54.83
2023-02-17T03:33:00.855Z,54.60
2023-02-17T03:34:03.249Z,54.92
2023-02-17T03:35:06.079Z,54.81
2023-02-17T03:36:08.461Z,54.90
2023-02-17T03:37:10.977Z,54.73
2023-02-17T03:38:13.238Z,54.88
2023-02-17T03:39:15.487Z,54.96
2023-02-17T03:40:17.921Z,55.07
2023-02-17T03:41:20.392Z,55.13
2023-02-17T03:42:23.088Z,55.07
2023-02-17T03:43:25.273Z,55.10
2023-02-17T03:44:28.059Z,55.23
2023-02-17T03:45:31.383Z,55.33
2023-02-17T03:46:33.749Z,55.49
2023-02-17T03:47:36.041Z,55.53
2023-02-17T03:48:38.893Z,55.41
2023-02-17T03:49:41.078Z,55.34
2023-02-17T03:50:43.435Z,55.49
2023-02-17T03:51:46.825Z,55.59
2023-02-17T03:52:49.088Z,55.64
2023-02-17T03:53:52.585Z,55.66
2023-02-17T03:54:54.844Z,55.73
2023-02-17T03:55:57.054Z,55.89
2023-02-17T03:57:01.251Z,55.81
2023-02-17T03:58:03.974Z,55.84
2023-02-17T03:59:07.432Z,56.29
2023-02-17T04:00:10.305Z,56.23
2023-02-17T04:01:18.208Z,56.28
2023-02-17T04:02:20.542Z,56.31
2023-02-17T04:03:23.096Z,56.42
2023-02-17T04:04:26.768Z,56.19
2023-02-17T04:05:28.953Z,56.31
2023-02-17T04:06:32.157Z,56.45
2023-02-17T04:07:34.677Z,56.54
2023-02-17T04:08:37.197Z,56.65
2023-02-17T04:09:39.482Z,57.00
2023-02-17T04:10:41.679Z,57.53
2023-02-17T04:11:44.153Z,57.66
2023-02-17T04:12:46.437Z,57.99
2023-02-17T04:13:48.812Z,58.43
2023-02-17T04:14:51.024Z,58.42
2023-02-17T04:15:54.408Z,58.72
2023-02-17T04:16:56.919Z,58.74
2023-02-17T04:17:59.293Z,58.75
2023-02-17T04:19:04.123Z,58.91
2023-02-17T04:20:08.296Z,58.72
2023-02-17T04:21:10.573Z,59.04
2023-02-17T04:22:12.865Z,59.31
2023-02-17T04:23:15.788Z,59.75
2023-02-17T04:24:18.225Z,59.99
2023-02-17T04:25:22.230Z,60.14
2023-02-17T04:26:24.375Z,60.35
2023-02-17T04:27:26.573Z,60.29
2023-02-17T04:28:28.844Z,60.72
2023-02-17T04:29:31.976Z,60.61
2023-02-17T04:30:35.000Z,60.44
2023-02-17T04:31:37.675Z,60.43
2023-02-17T04:32:39.902Z,60.36
2023-02-17T04:33:42.110Z,60.39
2023-02-17T04:34:44.363Z,60.39
2023-02-17T04:35:47.650Z,60.48
2023-02-17T04:36:52.609Z,60.28
2023-02-17T04:37:55.178Z,60.34
2023-02-17T04:38:57.696Z,60.51
2023-02-17T04:39:59.906Z,60.20
2023-02-17T04:41:02.371Z,60.02
2023-02-17T04:42:06.885Z,60.17
2023-02-17T04:43:09.835Z,60.09
2023-02-17T04:44:12.063Z,60.61
2023-02-17T04:45:14.291Z,60.54
2023-02-17T04:46:16.562Z,60.86
2023-02-17T04:47:18.808Z,60.86
2023-02-17T04:48:21.270Z,60.58
2023-02-17T04:49:23.476Z,60.66
2023-02-17T04:50:25.747Z,60.50
2023-02-17T04:51:28.029Z,60.58
2023-02-17T04:52:30.605Z,60.73
2023-02-17T04:53:32.890Z,60.62
2023-02-17T04:54:35.272Z,60.64
2023-02-17T04:55:38.484Z,60.82
2023-02-17T04:56:40.721Z,61.12
2023-02-17T04:57:42.893Z,61.05
2023-02-17T04:58:45.097Z,61.45
2023-02-17T04:59:47.359Z,61.34
2023-02-17T05:00:50.793Z,61.29
2023-02-17T05:01:53.152Z,61.34
2023-02-17T05:02:56.331Z,61.47
2023-02-17T05:03:59.605Z,61.15
2023-02-17T05:05:02.038Z,61.19
2023-02-17T05:06:04.871Z,61.19
2023-02-17T05:07:07.358Z,61.21
2023-02-17T05:08:09.882Z,61.33
2023-02-17T05:09:13.136Z,61.33
2023-02-17T05:10:17.636Z,61.52
2023-02-17T05:11:21.195Z,61.36
2023-02-17T05:12:24.681Z,61.27
2023-02-17T05:13:27.744Z,61.36
2023-02-17T05:14:29.996Z,61.63
2023-02-17T05:15:34.729Z,61.68
2023-02-17T05:16:37.256Z,61.77
2023-02-17T05:17:40.464Z,61.76
2023-02-17T05:18:42.668Z,61.73
2023-02-17T05:19:45.686Z,62.10
2023-02-17T05:20:49.676Z,62.05
2023-02-17T05:21:53.165Z,61.92
2023-02-17T05:22:55.444Z,61.81
2023-02-17T05:23:57.814Z,61.90
2023-02-17T05:25:01.240Z,62.10
2023-02-17T05:26:03.915Z,62.14
2023-02-17T05:27:06.493Z,62.28
2023-02-17T05:28:08.871Z,62.34
2023-02-17T05:29:11.410Z,61.92
2023-02-17T05:30:14.039Z,61.90
2023-02-17T05:31:17.420Z,61.99
2023-02-17T05:32:22.245Z,61.92
2023-02-17T05:33:24.466Z,62.40
2023-02-17T05:34:28.998Z,62.48
2023-02-17T05:35:31.823Z,62.35
2023-02-17T05:36:34.924Z,62.39
2023-02-17T05:37:37.178Z,62.10
2023-02-17T05:38:42.454Z,62.25
2023-02-17T05:39:44.689Z,62.43
2023-02-17T05:40:47.019Z,62.56
2023-02-17T05:41:49.797Z,62.77
2023-02-17T05:42:52.596Z,62.96
2023-02-17T05:43:54.800Z,62.95
2023-02-17T05:44:57.030Z,62.73
2023-02-17T05:46:04.046Z,62.88
2023-02-17T05:47:06.424Z,62.83
2023-02-17T05:48:08.703Z,63.03
2023-02-17T05:49:10.943Z,62.78
2023-02-17T05:50:13.165Z,63.11
2023-02-17T05:51:17.383Z,62.83
2023-02-17T05:52:20.251Z,63.10
2023-02-17T05:53:22.500Z,63.20
2023-02-17T05:54:24.842Z,62.73
2023-02-17T05:55:27.123Z,62.75
2023-02-17T05:56:29.504Z,62.67
2023-02-17T05:57:32.288Z,62.81
2023-02-17T05:58:34.632Z,62.75
2023-02-17T05:59:36.839Z,62.73
2023-02-17T06:00:39.101Z,62.79
2023-02-17T06:01:41.261Z,62.66
2023-02-17T06:02:43.694Z,62.93
2023-02-17T06:03:46.113Z,62.79
2023-02-17T06:04:48.821Z,62.55
2023-02-17T06:05:51.036Z,62.55
2023-02-17T06:06:53.250Z,62.60
2023-02-17T06:07:55.589Z,62.46
2023-02-17T06:09:00.708Z,62.34
2023-02-17T06:10:03.370Z,62.21
2023-02-17T06:11:05.626Z,62.12
2023-02-17T06:12:08.142Z,62.23
2023-02-17T06:13:12.009Z,62.20
2023-02-17T06:14:14.374Z,62.16
2023-02-17T06:15:16.984Z,62.26
2023-02-17T06:16:19.210Z,62.14
2023-02-17T06:17:21.923Z,62.36
2023-02-17T06:18:24.270Z,62.40
2023-02-17T06:19:26.659Z,62.20
2023-02-17T06:20:28.891Z,62.49
2023-02-17T06:21:32.120Z,62.61
2023-02-17T06:22:36.211Z,62.45
2023-02-17T06:23:38.412Z,62.50
2023-02-17T06:24:40.718Z,62.34
2023-02-17T06:25:43.126Z,62.40
2023-02-17T06:26:45.397Z,62.04
2023-02-17T06:27:47.748Z,62.18
2023-02-17T06:28:51.066Z,62.33
2023-02-17T06:29:53.324Z,62.21
2023-02-17T06:30:55.603Z,62.47
2023-02-17T06:32:00.216Z,62.67
2023-02-17T06:33:02.507Z,62.76
2023-02-17T06:34:06.755Z,62.42
2023-02-17T06:35:09.210Z,62.27
2023-02-17T06:36:11.737Z,62.61
2023-02-17T06:37:13.901Z,62.47
2023-02-17T06:38:16.180Z,62.58
2023-02-17T06:39:18.348Z,62.63
2023-02-17T06:40:20.628Z,62.56
2023-02-17T06:41:22.776Z,62.40
2023-02-17T06:42:25.351Z,62.74
2023-02-17T06:43:27.524Z,62.66
2023-02-17T06:44:30.014Z,62.57
2023-02-17T06:45:32.277Z,62.29
2023-02-17T06:46:34.979Z,62.33
2023-02-17T06:47:37.161Z,62.24
2023-02-17T06:48:42.961Z,62.22
2023-02-17T06:49:45.215Z,62.11
2023-02-17T06:50:50.526Z,61.97
2023-02-17T06:51:52.872Z,61.92
2023-02-17T06:52:55.076Z,61.88
2023-02-17T06:53:57.522Z,61.93
2023-02-17T06:54:59.751Z,61.79
2023-02-17T06:56:02.300Z,62.10
2023-02-17T06:57:04.553Z,61.95
2023-02-17T06:58:08.500Z,61.91
2023-02-17T06:59:10.765Z,62.08
2023-02-17T07:00:13.336Z,61.84
2023-02-17T07:01:24.320Z,61.85
2023-02-17T07:02:28.056Z,61.91
2023-02-17T07:03:32.123Z,61.77
2023-02-17T07:04:34.454Z,61.86
2023-02-17T07:05:38.867Z,61.93
2023-02-17T07:06:41.395Z,61.80
2023-02-17T07:07:43.716Z,61.75
2023-02-17T07:08:46.379Z,61.97
2023-02-17T07:09:50.025Z,62.00
2023-02-17T07:10:53.500Z,62.15
2023-02-17T07:11:58.135Z,62.03
2023-02-17T07:13:00.828Z,62.26
2023-02-17T07:14:03.323Z,62.17
2023-02-17T07:15:05.935Z,62.03
2023-02-17T07:16:09.797Z,62.21
2023-02-17T07:17:12.234Z,62.32
2023-02-17T07:18:14.852Z,62.40
2023-02-17T07:19:17.013Z,62.40
2023-02-17T07:20:19.422Z,62.78
2023-02-17T07:21:21.670Z,62.84
2023-02-17T07:22:25.655Z,62.83
2023-02-17T07:23:28.166Z,62.80
2023-02-17T07:24:31.825Z,62.69
2023-02-17T07:25:36.063Z,62.87
2023-02-17T07:26:41.788Z,62.93
2023-02-17T07:27:44.128Z,62.50
2023-02-17T07:28:47.872Z,62.54
2023-02-17T07:29:50.037Z,62.68
2023-02-17T07:30:52.502Z,62.69
2023-02-17T07:31:56.062Z,62.93
2023-02-17T07:32:58.600Z,62.69
2023-02-17T07:34:04.501Z,62.50
2023-02-17T07:35:07.180Z,62.58
2023-02-17T07:36:15.103Z,62.53
2023-02-17T07:37:17.459Z,62.48
2023-02-17T07:38:19.973Z,62.54
2023-02-17T07:39:22.115Z,62.67
2023-02-17T07:40:25.083Z,63.01
2023-02-17T07:41:28.841Z,63.10
2023-02-17T07:42:31.626Z,62.93
2023-02-17T07:43:33.932Z,63.09
2023-02-17T07:44:38.683Z,62.88
2023-02-17T07:45:41.983Z,62.89
2023-02-17T07:46:44.157Z,62.85
2023-02-17T07:47:46.348Z,62.96
2023-02-17T07:48:48.546Z,63.15
2023-02-17T07:49:53.331Z,63.24
2023-02-17T07:50:57.067Z,63.08
2023-02-17T07:52:00.864Z,63.12
2023-02-17T07:53:03.825Z,63.03
2023-02-17T07:54:06.342Z,62.98
2023-02-17T07:55:08.748Z,63.14
2023-02-17T07:56:13.751Z,63.07
2023-02-17T07:57:16.682Z,63.05
2023-02-17T07:58:20.453Z,62.93
2023-02-17T07:59:23.708Z,63.02
2023-02-17T08:00:26.131Z,63.03
2023-02-17T08:01:30.108Z,63.04
2023-02-17T08:02:34.574Z,63.09
2023-02-17T08:03:37.924Z,63.27
2023-02-17T08:04:40.100Z,63.33
2023-02-17T08:05:44.768Z,63.16
2023-02-17T08:06:48.813Z,63.33
2023-02-17T08:08:10.997Z,63.10
2023-02-17T08:09:31.964Z,63.30
2023-02-17T08:10:52.750Z,63.31
2023-02-17T08:12:13.685Z,63.26
2023-02-17T08:13:20.030Z,63.22
2023-02-17T08:14:27.654Z,63.11
2023-02-17T08:15:33.219Z,63.20
2023-02-17T08:16:35.804Z,62.97
2023-02-17T08:17:39.596Z,62.81
2023-02-17T08:18:42.746Z,62.88
2023-02-17T08:19:49.517Z,62.84
2023-02-17T08:20:52.426Z,62.91
2023-02-17T08:21:54.780Z,62.83
2023-02-17T08:22:58.094Z,62.71
2023-02-17T08:24:00.625Z,62.71
2023-02-17T08:25:07.128Z,62.63
2023-02-17T08:26:10.413Z,62.79
2023-02-17T08:27:14.797Z,62.73
2023-02-17T08:28:17.780Z,62.81
2023-02-17T08:29:22.122Z,62.79
2023-02-17T08:30:24.354Z,62.71
2023-02-17T08:31:33.176Z,62.83
2023-02-17T08:32:35.435Z,62.83
2023-02-17T08:33:37.625Z,62.81
2023-02-17T08:34:40.028Z,62.63
2023-02-17T08:35:43.749Z,62.83
2023-02-17T08:36:46.280Z,63.05
2023-02-17T08:37:50.077Z,62.93
2023-02-17T08:38:54.041Z,62.79
2023-02-17T08:39:56.978Z,62.79
2023-02-17T08:41:00.789Z,62.55
2023-02-17T08:42:04.510Z,62.80
2023-02-17T08:43:10.184Z,62.57
2023-02-17T08:44:21.008Z,62.60
2023-02-17T08:45:24.126Z,62.47
2023-02-17T08:46:29.714Z,62.38
2023-02-17T08:47:32.624Z,62.19
2023-02-17T08:48:37.034Z,62.17
2023-02-17T08:49:40.508Z,62.24
2023-02-17T08:50:42.654Z,62.25
2023-02-17T08:51:45.629Z,62.06
2023-02-17T08:52:48.119Z,62.08
2023-02-17T08:53:54.487Z,62.07
2023-02-17T08:54:56.716Z,62.03
2023-02-17T08:55:59.090Z,61.88
2023-02-17T08:57:03.620Z,61.99
2023-02-17T08:58:05.890Z,61.85
2023-02-17T08:59:09.953Z,61.66
2023-02-17T09:00:12.545Z,61.69
2023-02-17T09:01:14.956Z,61.55
2023-02-17T09:02:18.299Z,61.62
2023-02-17T09:03:20.460Z,61.52
2023-02-17T09:04:22.905Z,61.47
2023-02-17T09:05:26.142Z,61.47
2023-02-17T09:06:41.617Z,61.38
2023-02-17T09:07:44.224Z,61.47
2023-02-17T09:08:46.444Z,61.39
2023-02-17T09:09:48.860Z,61.35
2023-02-17T09:10:51.905Z,61.45
2023-02-17T09:11:59.731Z,61.53
2023-02-17T09:13:01.985Z,61.47
2023-02-17T09:14:05.141Z,61.25
2023-02-17T09:15:09.274Z,61.53
2023-02-17T09:16:14.336Z,61.48
2023-02-17T09:17:19.566Z,61.33
2023-02-17T09:18:22.481Z,61.36
2023-02-17T09:19:26.042Z,61.47
2023-02-17T09:20:31.428Z,61.40
2023-02-17T09:21:33.849Z,61.56
2023-02-17T09:22:36.658Z,61.43
2023-02-17T09:23:39.574Z,61.46
2023-02-17T09:24:43.014Z,61.46
2023-02-17T09:25:45.543Z,61.34
2023-02-17T09:26:47.871Z,61.48
2023-02-17T09:27:50.543Z,61.35
2023-02-17T09:28:53.074Z,61.55
2023-02-17T09:29:56.319Z,61.33
2023-02-17T09:30:59.749Z,61.39
2023-02-17T09:32:02.076Z,61.32
2023-02-17T09:33:05.514Z,61.28
2023-02-17T09:34:07.714Z,61.31
2023-02-17T09:35:14.647Z,61.30
2023-02-17T09:36:21.514Z,61.19
2023-02-17T09:37:25.320Z,61.14
2023-02-17T09:38:27.575Z,61.21
2023-02-17T09:39:30.189Z,61.22
2023-02-17T09:40:43.409Z,61.08
2023-02-17T09:41:52.334Z,60.94
2023-02-17T09:42:54.989Z,60.94
2023-02-17T09:43:57.667Z,61.04
2023-02-17T09:45:09.348Z,60.95
2023-02-17T09:46:19.452Z,60.78
2023-02-17T09:47:28.556Z,60.78
2023-02-17T09:48:34.208Z,60.56
2023-02-17T09:49:45.711Z,60.71
2023-02-17T09:51:00.494Z,60.52
2023-02-17T09:52:14.817Z,60.49
2023-02-17T09:53:39.129Z,60.35
2023-02-17T09:54:59.676Z,60.34
2023-02-17T09:56:05.594Z,60.03
2023-02-17T09:57:19.761Z,59.75
2023-02-17T09:58:58.012Z,59.80
2023-02-17T10:00:09.993Z,59.86
2023-02-17T10:01:19.493Z,59.76
2023-02-17T10:02:33.758Z,59.78
2023-02-17T10:03:41.036Z,59.57
2023-02-17T10:04:47.506Z,59.57
2023-02-17T10:06:04.078Z,59.68
2023-02-17T10:07:15.137Z,59.33
2023-02-17T10:08:28.833Z,59.33
2023-02-17T10:09:36.184Z,59.26
2023-02-17T10:10:46.411Z,59.30
2023-02-17T10:11:57.275Z,59.19
2023-02-17T10:13:02.475Z,58.94
2023-02-17T10:14:15.836Z,59.05
2023-02-17T10:15:25.263Z,58.95
2023-02-17T10:16:36.979Z,58.97
2023-02-17T10:18:15.306Z,58.65
2023-02-17T10:20:01.044Z,58.88
2023-02-17T10:21:07.604Z,58.76
2023-02-17T10:22:22.235Z,58.82
2023-02-17T10:23:27.697Z,58.68
2023-02-17T10:24:30.126Z,58.99
2023-02-17T10:26:07.773Z,58.88
2023-02-17T10:27:23.189Z,58.96
2023-02-17T10:28:53.545Z,58.90
2023-02-17T10:30:24.802Z,58.68
2023-02-17T10:31:42.219Z,58.90
2023-02-17T10:33:11.939Z,58.73
2023-02-17T10:34:26.680Z,58.81
2023-02-17T10:35:53.005Z,58.88
2023-02-17T10:37:11.433Z,58.75
2023-02-17T10:38:48.825Z,58.74
2023-02-17T10:39:58.270Z,58.67
2023-02-17T10:41:03.809Z,58.60
2023-02-17T10:42:17.985Z,58.67
2023-02-17T10:43:30.158Z,58.54
2023-02-17T10:44:36.744Z,58.75
2023-02-17T10:45:45.588Z,58.43
2023-02-17T10:46:50.538Z,58.40
2023-02-17T10:47:59.483Z,58.50
2023-02-17T10:49:05.151Z,58.60
2023-02-17T10:50:21.783Z,58.33
2023-02-17T10:51:27.680Z,58.22
2023-02-17T10:52:38.379Z,58.14
2023-02-17T10:53:41.284Z,58.14
2023-02-17T10:54:55.247Z,58.30
2023-02-17T10:56:14.653Z,58.05
2023-02-17T10:57:19.734Z,58.20
2023-02-17T10:58:46.627Z,58.08
2023-02-17T10:59:49.912Z,57.70
2023-02-17T11:00:56.604Z,57.73
2023-02-17T11:02:23.222Z,57.51
2023-02-17T11:03:31.246Z,57.61
2023-02-17T11:04:42.535Z,57.85
2023-02-17T11:05:45.414Z,57.71
2023-02-17T11:06:53.897Z,57.65
2023-02-17T11:08:00.782Z,57.71
2023-02-17T11:09:07.788Z,57.77
2023-02-17T11:10:28.165Z,58.04
2023-02-17T11:11:39.088Z,58.17
2023-02-17T11:12:42.724Z,58.52
2023-02-17T11:14:01.365Z,58.55
2023-02-17T11:15:14.581Z,58.53
2023-02-17T11:16:26.690Z,58.39
2023-02-17T11:17:35.376Z,58.43
2023-02-17T11:18:45.620Z,58.41
2023-02-17T11:20:04.631Z,58.75
2023-02-17T11:21:11.394Z,58.66
2023-02-17T11:22:37.298Z,58.97
2023-02-17T11:23:53.998Z,59.26
2023-02-17T11:25:00.801Z,59.27
2023-02-17T11:26:28.130Z,59.38
2023-02-17T11:27:30.323Z,59.19
2023-02-17T11:28:35.091Z,59.40
2023-02-17T11:29:38.004Z,59.30
2023-02-17T11:30:48.910Z,59.40
2023-02-17T11:32:08.542Z,59.42
2023-02-17T11:33:20.279Z,59.52
2023-02-17T11:34:28.770Z,59.58
2023-02-17T11:35:49.078Z,59.59
2023-02-17T11:37:22.339Z,59.64
2023-02-17T11:38:28.629Z,59.45
2023-02-17T11:39:31.134Z,59.52
2023-02-17T11:40:33.733Z,59.67
2023-02-17T11:41:40.284Z,60.05
2023-02-17T11:42:42.549Z,59.80
2023-02-17T11:43:58.132Z,59.84
2023-02-17T11:45:06.202Z,59.68
2023-02-17T11:46:25.853Z,60.05
2023-02-17T11:47:52.571Z,59.99
2023-02-17T11:49:03.653Z,59.88
2023-02-17T11:50:40.143Z,59.57
2023-02-17T11:52:11.351Z,59.87
2023-02-17T11:53:31.808Z,59.74
2023-02-17T11:54:49.022Z,59.60
2023-02-17T11:56:23.895Z,59.62
2023-02-17T11:57:51.532Z,59.67
2023-02-17T11:59:03.209Z,59.91
2023-02-17T12:00:11.427Z,60.09
2023-02-17T12:01:22.481Z,59.97
2023-02-17T12:03:11.086Z,60.10
2023-02-17T12:04:21.792Z,60.10
2023-02-17T12:05:42.772Z,59.92
2023-02-17T12:07:06.749Z,60.09
2023-02-17T12:08:47.725Z,60.03
2023-02-17T12:10:01.923Z,59.90
2023-02-17T12:11:37.141Z,59.94
2023-02-17T12:13:16.984Z,59.72
2023-02-17T12:14:30.324Z,59.97
2023-02-17T12:15:54.324Z,59.81
2023-02-17T12:17:33.994Z,59.86
2023-02-17T12:18:58.708Z,59.72
2023-02-17T12:20:31.949Z,59.91
2023-02-17T12:22:01.898Z,59.98
2023-02-17T12:23:35.094Z,59.73
2023-02-17T12:24:54.699Z,59.76
2023-02-17T12:26:02.727Z,59.75
2023-02-17T12:27:16.841Z,59.69
2023-02-17T12:28:42.032Z,59.73
2023-02-17T12:30:18.923Z,59.89
2023-02-17T12:31:39.316Z,59.93
2023-02-17T12:33:12.354Z,59.85
2023-02-17T12:34:30.341Z,60.05
2023-02-17T12:35:53.005Z,59.89
2023-02-17T12:36:57.368Z,59.97
2023-02-17T12:38:10.645Z,59.90
2023-02-17T12:39:25.092Z,59.90
2023-02-17T12:40:39.047Z,59.82
2023-02-17T12:41:48.646Z,59.76
2023-02-17T12:43:00.394Z,59.73
2023-02-17T12:44:08.193Z,59.76
2023-02-17T12:45:12.952Z,59.57
2023-02-17T12:46:29.695Z,59.76
2023-02-17T12:47:52.443Z,59.71
2023-02-17T12:49:07.205Z,59.82
2023-02-17T12:50:27.559Z,59.56
2023-02-17T12:51:38.331Z,59.50
2023-02-17T12:52:44.824Z,59.57
2023-02-17T12:53:59.279Z,59.63
2023-02-17T12:55:22.191Z,59.43
2023-02-17T12:56:31.465Z,59.44
2023-02-17T12:57:53.412Z,59.35
2023-02-17T12:59:01.283Z,59.29
2023-02-17T13:00:17.079Z,59.13
2023-02-17T13:01:22.016Z,59.15
2023-02-17T13:02:28.426Z,59.23
2023-02-17T13:03:34.475Z,58.92
2023-02-17T13:04:37.209Z,59.15
2023-02-17T13:05:57.223Z,58.82
2023-02-17T13:07:32.913Z,59.09
2023-02-17T13:08:43.975Z,58.99
2023-02-17T13:09:50.488Z,58.88
2023-02-17T13:11:05.101Z,58.91
2023-02-17T13:12:25.727Z,58.86
2023-02-17T13:13:31.502Z,58.68
2023-02-17T13:14:51.112Z,58.71
2023-02-17T13:16:12.863Z,58.76
2023-02-17T13:17:30.581Z,58.47
2023-02-17T13:18:35.695Z,58.31
2023-02-17T13:19:39.617Z,58.53
2023-02-17T13:20:52.730Z,58.24
2023-02-17T13:21:57.139Z,58.19
2023-02-17T13:23:12.415Z,58.22
2023-02-17T13:24:30.572Z,58.35
2023-02-17T13:25:37.512Z,58.45
2023-02-17T13:26:42.482Z,58.17
2023-02-17T13:27:44.752Z,58.09
2023-02-17T13:28:48.389Z,58.05
2023-02-17T13:30:03.803Z,57.95
2023-02-17T13:31:21.116Z,57.83
2023-02-17T13:32:28.998Z,57.99
2023-02-17T13:33:31.682Z,57.89
2023-02-17T13:34:39.812Z,57.83
2023-02-17T13:35:42.062Z,57.80
2023-02-17T13:36:44.333Z,57.99
2023-02-17T13:37:46.802Z,57.75
2023-02-17T13:39:01.783Z,57.81
2023-02-17T13:40:17.953Z,57.62
2023-02-17T13:41:20.527Z,57.67
2023-02-17T13:42:39.506Z,57.53
2023-02-17T13:43:43.494Z,57.44
2023-02-17T13:44:47.224Z,57.54
2023-02-17T13:45:57.340Z,57.42
2023-02-17T13:47:11.726Z,57.33
2023-02-17T13:48:17.685Z,57.37
2023-02-17T13:49:24.566Z,57.32
2023-02-17T13:50:36.081Z,57.36
2023-02-17T13:51:38.329Z,57.26
2023-02-17T13:52:43.765Z,57.29
2023-02-17T13:53:50.339Z,57.33
2023-02-17T13:55:01.131Z,57.20
2023-02-17T13:56:27.853Z,57.26
2023-02-17T13:57:38.096Z,57.15
2023-02-17T13:58:43.009Z,57.19
2023-02-17T13:59:47.765Z,57.18
2023-02-17T14:00:52.253Z,57.24
2023-02-17T14:01:55.062Z,57.17
2023-02-17T14:03:16.185Z,57.17
2023-02-17T14:04:28.595Z,57.11
2023-02-17T14:05:30.784Z,56.94
2023-02-17T14:06:42.987Z,56.79
2023-02-17T14:07:50.239Z,56.86
2023-02-17T14:08:52.556Z,56.87
2023-02-17T14:09:55.756Z,56.79
2023-02-17T14:11:10.529Z,56.96
2023-02-17T14:12:23.820Z,56.93
2023-02-17T14:13:26.684Z,56.71
2023-02-17T14:14:32.523Z,56.84
2023-02-17T14:15:36.077Z,56.62
2023-02-17T14:16:41.627Z,56.78
2023-02-17T14:17:46.641Z,56.76
2023-02-17T14:19:00.592Z,56.53
2023-02-17T14:20:05.487Z,56.57
2023-02-17T14:21:11.216Z,56.48
2023-02-17T14:22:31.723Z,56.56
2023-02-17T14:23:52.405Z,56.50
2023-02-17T14:25:08.017Z,56.62
2023-02-17T14:26:16.345Z,56.58
2023-02-17T14:27:19.062Z,56.59
2023-02-17T14:28:26.848Z,56.45
2023-02-17T14:29:46.980Z,56.57